createdAt,value
2017-05-07T00:00:40.258Z,68.67
2017-05-07T00:01:40.900Z,68.19
2017-05-07T00:02:41.543Z,68.76
2017-05-07T00:03:42.179Z,69.06
2017-05-07T00:04:42.822Z,68.67
2017-05-07T00:05:43.465Z,68.96
2017-05-07T00:06:44.556Z,69.82
2017-05-07T00:07:45.191Z,69.44
2017-05-07T00:08:45.831Z,70.30
2017-05-07T00:09:46.472Z,70.21
2017-05-07T00:10:47.115Z,69.06
2017-05-07T00:11:47.764Z,69.24
2017-05-07T00:12:48.400Z,69.53
2017-05-07T00:13:49.042Z,69.63
2017-05-07T00:14:49.833Z,69.15
2017-05-07T00:15:50.474Z,68.96
2017-05-07T00:16:51.116Z,69.34
2017-05-07T00:17:51.759Z,69.53
2017-05-07T00:18:52.400Z,69.63
2017-05-07T00:19:53.040Z,69.34
2017-05-07T00:20:53.686Z,69.73
2017-05-07T00:21:54.383Z,69.63
2017-05-07T00:22:55.225Z,70.01
2017-05-07T00:23:55.866Z,70.78
2017-05-07T00:24:56.507Z,70.68
2017-05-07T00:25:57.148Z,70.40
2017-05-07T00:26:57.788Z,70.21
2017-05-07T00:27:58.433Z,70.01
2017-05-07T00:28:59.071Z,70.21
2017-05-07T00:29:59.718Z,70.30
2017-05-07T00:31:00.355Z,69.63
2017-05-07T00:32:01.191Z,70.01
2017-05-07T00:33:01.834Z,69.92
2017-05-07T00:34:02.471Z,70.21
2017-05-07T00:35:03.117Z,70.40
2017-05-07T00:36:03.816Z,70.30
2017-05-07T00:37:04.456Z,70.30
2017-05-07T00:38:05.093Z,70.40
2017-05-07T00:39:05.735Z,70.11
2017-05-07T00:40:06.578Z,70.50
2017-05-07T00:41:07.221Z,70.40
2017-05-07T00:42:07.861Z,70.11
2017-05-07T00:43:08.502Z,70.59
2017-05-07T00:44:09.141Z,69.82
2017-05-07T00:45:09.784Z,70.88
2017-05-07T00:46:10.425Z,69.63
2017-05-07T00:47:11.065Z,69.82
2017-05-07T00:48:11.911Z,70.59
2017-05-07T00:49:12.551Z,70.21
2017-05-07T00:50:13.190Z,70.11
2017-05-07T00:51:13.831Z,70.11
2017-05-07T00:52:14.474Z,69.24
2017-05-07T00:53:15.116Z,69.63
2017-05-07T00:54:15.756Z,69.06
2017-05-07T00:55:16.401Z,69.24
2017-05-07T00:56:17.245Z,69.24
2017-05-07T00:57:17.887Z,69.53
2017-05-07T00:58:18.527Z,69.82
2017-05-07T00:59:19.165Z,69.73
2017-05-07T01:00:19.808Z,70.01
2017-05-07T01:01:20.453Z,69.82
2017-05-07T01:02:21.092Z,70.21
2017-05-07T01:03:21.736Z,70.11
2017-05-07T01:04:22.376Z,70.30
2017-05-07T01:05:23.219Z,70.01
2017-05-07T01:06:23.861Z,69.63
2017-05-07T01:07:24.504Z,69.82
2017-05-07T01:08:25.146Z,69.34
2017-05-07T01:09:25.819Z,69.15
2017-05-07T01:10:26.627Z,69.34
2017-05-07T01:11:27.269Z,69.60
2017-05-07T01:12:27.908Z,70.01
2017-05-07T01:13:28.747Z,69.63
2017-05-07T01:14:29.391Z,70.78
2017-05-07T01:15:30.038Z,70.21
2017-05-07T01:16:30.678Z,70.21
2017-05-07T01:17:31.319Z,69.82
2017-05-07T01:18:31.959Z,70.07
2017-05-07T01:19:32.602Z,70.65
2017-05-07T01:20:33.243Z,70.50
2017-05-07T01:21:34.084Z,70.50
2017-05-07T01:22:34.722Z,70.50
2017-05-07T01:23:35.363Z,70.37
2017-05-07T01:24:36.003Z,71.08
2017-05-07T01:25:36.647Z,70.27
2017-05-07T01:26:37.289Z,70.56
2017-05-07T01:27:37.934Z,70.30
2017-05-07T01:28:38.633Z,70.40
2017-05-07T01:29:39.274Z,70.37
2017-05-07T01:30:39.915Z,70.27
2017-05-07T01:31:40.554Z,70.46
2017-05-07T01:32:41.196Z,70.65
2017-05-07T01:33:41.842Z,70.56
2017-05-07T01:34:42.481Z,70.59
2017-05-07T01:35:43.127Z,70.07
2017-05-07T01:36:43.767Z,69.98
2017-05-07T01:37:44.605Z,70.27
2017-05-07T01:38:45.248Z,70.37
2017-05-07T01:39:45.884Z,70.07
2017-05-07T01:40:46.528Z,69.98
2017-05-07T01:41:47.170Z,70.07
2017-05-07T01:42:47.810Z,69.89
2017-05-07T01:43:48.453Z,70.75
2017-05-07T01:44:49.093Z,70.37
2017-05-07T01:45:49.737Z,70.07
2017-05-07T01:46:50.573Z,70.56
2017-05-07T01:47:51.217Z,70.46
2017-05-07T01:48:51.858Z,70.17
2017-05-07T01:49:52.500Z,69.60
2017-05-07T01:50:53.141Z,70.27
2017-05-07T01:51:53.781Z,70.17
2017-05-07T01:52:54.418Z,70.17
2017-05-07T01:53:55.054Z,70.17
2017-05-07T01:54:55.895Z,70.07
2017-05-07T01:55:56.535Z,70.17
2017-05-07T01:56:57.174Z,69.89
2017-05-07T01:57:57.815Z,69.98
2017-05-07T01:58:58.452Z,70.27
2017-05-07T01:59:59.093Z,70.17
2017-05-07T02:00:59.733Z,70.37
2017-05-07T02:02:00.370Z,70.65
2017-05-07T02:03:01.160Z,70.46
2017-05-07T02:04:01.801Z,70.07
2017-05-07T02:05:02.437Z,70.17
2017-05-07T02:06:03.077Z,70.84
2017-05-07T02:07:03.719Z,70.27
2017-05-07T02:08:04.359Z,70.27
2017-05-07T02:09:04.998Z,70.37
2017-05-07T02:10:05.635Z,70.37
2017-05-07T02:11:06.480Z,70.17
2017-05-07T02:12:07.120Z,70.27
2017-05-07T02:13:07.758Z,70.17
2017-05-07T02:14:08.400Z,70.37
2017-05-07T02:15:09.036Z,70.65
2017-05-07T02:16:09.677Z,70.56
2017-05-07T02:17:10.319Z,70.37
2017-05-07T02:18:10.965Z,70.17
2017-05-07T02:19:11.604Z,69.98
2017-05-07T02:20:12.445Z,69.79
2017-05-07T02:21:13.087Z,70.27
2017-05-07T02:22:13.731Z,69.60
2017-05-07T02:23:14.368Z,70.17
2017-05-07T02:24:15.011Z,70.37
2017-05-07T02:25:15.646Z,70.27
2017-05-07T02:26:16.282Z,70.65
2017-05-07T02:27:16.923Z,70.37
2017-05-07T02:28:17.762Z,70.07
2017-05-07T02:29:18.401Z,70.37
2017-05-07T02:30:19.043Z,69.89
2017-05-07T02:31:19.685Z,70.07
2017-05-07T02:32:20.323Z,69.89
2017-05-07T02:33:20.959Z,70.27
2017-05-07T02:34:21.594Z,69.89
2017-05-07T02:35:22.234Z,69.89
2017-05-07T02:36:23.073Z,70.07
2017-05-07T02:37:23.716Z,70.56
2017-05-07T02:38:24.357Z,69.89
2017-05-07T02:39:25.003Z,69.79
2017-05-07T02:40:25.638Z,69.79
2017-05-07T02:41:26.280Z,69.89
2017-05-07T02:42:26.927Z,69.98
2017-05-07T02:43:27.562Z,70.56
2017-05-07T02:44:28.406Z,70.17
2017-05-07T02:45:29.049Z,69.98
2017-05-07T02:46:29.690Z,70.37
2017-05-07T02:47:30.329Z,70.65
2017-05-07T02:48:30.973Z,70.65
2017-05-07T02:49:31.616Z,70.17
2017-05-07T02:50:32.255Z,70.65
2017-05-07T02:51:32.900Z,70.37
2017-05-07T02:52:33.690Z,69.60
2017-05-07T02:53:34.333Z,70.37
2017-05-07T02:54:34.974Z,70.37
2017-05-07T02:55:35.612Z,70.65
2017-05-07T02:56:36.254Z,69.40
2017-05-07T02:57:36.894Z,70.07
2017-05-07T02:58:37.537Z,70.07
2017-05-07T02:59:38.177Z,69.98
2017-05-07T03:00:38.814Z,70.17
2017-05-07T03:01:39.656Z,70.56
2017-05-07T03:02:40.298Z,70.17
2017-05-07T03:03:40.941Z,70.56
2017-05-07T03:04:41.581Z,70.46
2017-05-07T03:05:42.221Z,70.17
2017-05-07T03:06:42.864Z,70.37
2017-05-07T03:07:43.506Z,70.56
2017-05-07T03:08:44.147Z,70.37
2017-05-07T03:09:45.240Z,70.65
2017-05-07T03:10:45.888Z,70.17
2017-05-07T03:11:46.520Z,69.98
2017-05-07T03:12:47.155Z,69.98
2017-05-07T03:13:47.799Z,70.46
2017-05-07T03:14:48.440Z,70.17
2017-05-07T03:15:49.082Z,69.89
2017-05-07T03:16:49.719Z,70.27
2017-05-07T03:17:50.659Z,70.37
2017-05-07T03:18:51.300Z,69.60
2017-05-07T03:19:51.941Z,70.75
2017-05-07T03:20:52.581Z,69.79
2017-05-07T03:21:53.225Z,69.79
2017-05-07T03:22:53.866Z,70.07
2017-05-07T03:23:54.511Z,70.37
2017-05-07T03:24:55.146Z,70.27
2017-05-07T03:25:55.988Z,71.42
2017-05-07T03:26:56.626Z,72.29
2017-05-07T03:27:57.271Z,71.81
2017-05-07T03:28:57.910Z,71.52
2017-05-07T03:29:58.552Z,72.00
2017-05-07T03:30:59.197Z,72.00
2017-05-07T03:31:59.836Z,72.00
2017-05-07T03:33:00.475Z,71.33
2017-05-07T03:34:01.122Z,70.94
2017-05-07T03:35:01.959Z,71.61
2017-05-07T03:36:02.603Z,70.94
2017-05-07T03:37:03.245Z,70.37
2017-05-07T03:38:03.887Z,70.65
2017-05-07T03:39:04.851Z,71.14
2017-05-07T03:40:05.488Z,70.84
2017-05-07T03:41:06.130Z,71.52
2017-05-07T03:42:06.771Z,72.29
2017-05-07T03:43:07.564Z,70.84
2017-05-07T03:44:08.205Z,71.14
2017-05-07T03:45:08.845Z,71.14
2017-05-07T03:46:09.484Z,70.62
2017-05-07T03:47:10.121Z,70.37
2017-05-07T03:48:10.762Z,70.65
2017-05-07T03:49:11.353Z,71.81
2017-05-07T03:50:11.992Z,71.71
2017-05-07T03:51:12.832Z,70.17
2017-05-07T03:52:13.468Z,70.43
2017-05-07T03:53:14.111Z,71.14
2017-05-07T03:54:14.752Z,70.37
2017-05-07T03:55:15.391Z,70.23
2017-05-07T03:56:16.031Z,70.23
2017-05-07T03:57:16.678Z,70.23
2017-05-07T03:58:17.311Z,70.33
2017-05-07T03:59:18.249Z,70.14
2017-05-07T04:00:18.892Z,70.14
2017-05-07T04:01:19.535Z,70.43
2017-05-07T04:02:20.176Z,70.14
2017-05-07T04:03:20.812Z,70.14
2017-05-07T04:04:21.454Z,70.52
2017-05-07T04:05:22.095Z,70.43
2017-05-07T04:06:22.738Z,70.52
2017-05-07T04:07:23.579Z,70.23
2017-05-07T04:08:24.220Z,70.62
2017-05-07T04:09:24.864Z,70.33
2017-05-07T04:10:25.503Z,70.23
2017-05-07T04:11:26.148Z,70.14
2017-05-07T04:12:26.786Z,70.23
2017-05-07T04:13:27.429Z,70.04
2017-05-07T04:14:28.071Z,70.43
2017-05-07T04:15:28.706Z,70.52
2017-05-07T04:16:29.543Z,70.43
2017-05-07T04:17:30.185Z,69.95
2017-05-07T04:18:30.823Z,70.04
2017-05-07T04:19:31.464Z,70.72
2017-05-07T04:20:32.105Z,70.52
2017-05-07T04:21:32.745Z,69.85
2017-05-07T04:22:33.396Z,70.90
2017-05-07T04:23:34.030Z,70.72
2017-05-07T04:24:34.823Z,70.23
2017-05-07T04:25:35.460Z,70.14
2017-05-07T04:26:36.102Z,70.62
2017-05-07T04:27:36.738Z,70.33
2017-05-07T04:28:37.379Z,70.62
2017-05-07T04:29:38.019Z,70.04
2017-05-07T04:30:38.659Z,70.33
2017-05-07T04:31:39.301Z,70.23
2017-05-07T04:32:41.293Z,70.52
2017-05-07T04:33:41.936Z,70.43
2017-05-07T04:34:42.577Z,70.33
2017-05-07T04:35:43.218Z,70.14
2017-05-07T04:36:43.860Z,69.95
2017-05-07T04:37:44.502Z,70.14
2017-05-07T04:38:45.138Z,70.33
2017-05-07T04:39:45.779Z,70.52
2017-05-07T04:40:46.565Z,70.52
2017-05-07T04:41:47.202Z,70.43
2017-05-07T04:42:47.841Z,70.14
2017-05-07T04:43:48.482Z,70.52
2017-05-07T04:44:49.119Z,70.52
2017-05-07T04:45:49.756Z,71.19
2017-05-07T04:46:50.394Z,70.81
2017-05-07T04:47:51.034Z,71.48
2017-05-07T04:48:51.670Z,71.77
2017-05-07T04:49:52.512Z,72.25
2017-05-07T04:50:53.155Z,72.16
2017-05-07T04:51:53.796Z,71.19
2017-05-07T04:52:54.436Z,71.39
2017-05-07T04:53:55.078Z,71.19
2017-05-07T04:54:55.717Z,71.87
2017-05-07T04:55:56.355Z,70.62
2017-05-07T04:56:56.994Z,70.62
2017-05-07T04:57:57.834Z,70.62
2017-05-07T04:58:58.479Z,70.90
2017-05-07T04:59:59.117Z,71.00
2017-05-07T05:00:59.758Z,70.90
2017-05-07T05:02:00.399Z,70.43
2017-05-07T05:03:01.039Z,71.00
2017-05-07T05:04:01.684Z,70.43
2017-05-07T05:05:02.325Z,70.43
2017-05-07T05:06:03.111Z,71.00
2017-05-07T05:07:03.755Z,70.43
2017-05-07T05:08:04.396Z,70.62
2017-05-07T05:09:05.038Z,71.00
2017-05-07T05:10:05.679Z,70.62
2017-05-07T05:11:06.318Z,70.90
2017-05-07T05:12:06.957Z,70.23
2017-05-07T05:13:07.599Z,70.43
2017-05-07T05:14:08.440Z,70.72
2017-05-07T05:15:09.085Z,70.62
2017-05-07T05:16:10.047Z,71.00
2017-05-07T05:17:10.690Z,70.72
2017-05-07T05:18:11.329Z,70.90
2017-05-07T05:19:11.969Z,70.81
2017-05-07T05:20:12.609Z,70.52
2017-05-07T05:21:13.244Z,70.52
2017-05-07T05:22:14.083Z,70.90
2017-05-07T05:23:14.724Z,71.00
2017-05-07T05:24:15.364Z,71.10
2017-05-07T05:25:16.002Z,70.72
2017-05-07T05:26:16.643Z,71.00
2017-05-07T05:27:17.285Z,70.62
2017-05-07T05:28:17.925Z,70.33
2017-05-07T05:29:18.574Z,70.23
2017-05-07T05:30:19.214Z,70.72
2017-05-07T05:31:20.103Z,70.62
2017-05-07T05:32:20.746Z,70.72
2017-05-07T05:33:21.387Z,70.52
2017-05-07T05:34:22.025Z,70.33
2017-05-07T05:35:22.665Z,70.33
2017-05-07T05:36:23.306Z,70.23
2017-05-07T05:37:23.945Z,70.52
2017-05-07T05:38:24.587Z,70.52
2017-05-07T05:39:25.577Z,70.62
2017-05-07T05:40:26.215Z,70.72
2017-05-07T05:41:26.807Z,70.33
2017-05-07T05:42:27.448Z,70.43
2017-05-07T05:43:28.089Z,70.72
2017-05-07T05:44:28.797Z,70.14
2017-05-07T05:45:29.491Z,70.23
2017-05-07T05:46:30.126Z,70.14
2017-05-07T05:47:31.017Z,70.04
2017-05-07T05:48:31.658Z,70.33
2017-05-07T05:49:32.301Z,70.33
2017-05-07T05:50:32.944Z,70.52
2017-05-07T05:51:33.582Z,70.52
2017-05-07T05:52:34.223Z,70.62
2017-05-07T05:53:34.858Z,70.04
2017-05-07T05:54:35.499Z,70.14
2017-05-07T05:55:36.292Z,70.23
2017-05-07T05:56:36.933Z,70.23
2017-05-07T05:57:37.569Z,70.23
2017-05-07T05:58:38.215Z,70.72
2017-05-07T05:59:38.859Z,70.52
2017-05-07T06:00:39.494Z,70.23
2017-05-07T06:01:40.137Z,70.33
2017-05-07T06:02:40.783Z,70.52
2017-05-07T06:03:41.433Z,70.52
2017-05-07T06:04:42.255Z,70.33
2017-05-07T06:05:42.897Z,70.52
2017-05-07T06:06:43.537Z,70.52
2017-05-07T06:07:44.182Z,70.52
2017-05-07T06:08:44.817Z,70.62
2017-05-07T06:09:45.463Z,70.33
2017-05-07T06:10:46.105Z,70.90
2017-05-07T06:11:46.741Z,70.14
2017-05-07T06:12:47.583Z,71.00
2017-05-07T06:13:48.227Z,70.43
2017-05-07T06:14:48.867Z,70.90
2017-05-07T06:15:49.510Z,70.90
2017-05-07T06:16:50.150Z,71.19
2017-05-07T06:17:50.791Z,70.81
2017-05-07T06:18:51.431Z,70.90
2017-05-07T06:19:52.073Z,71.19
2017-05-07T06:20:52.912Z,70.90
2017-05-07T06:21:53.555Z,71.29
2017-05-07T06:22:54.191Z,71.29
2017-05-07T06:23:54.832Z,71.10
2017-05-07T06:24:55.474Z,71.29
2017-05-07T06:25:56.115Z,71.77
2017-05-07T06:26:56.757Z,72.54
2017-05-07T06:27:57.395Z,71.77
2017-05-07T06:28:58.239Z,72.44
2017-05-07T06:29:58.877Z,71.77
2017-05-07T06:30:59.520Z,71.67
2017-05-07T06:32:00.163Z,71.10
2017-05-07T06:33:00.753Z,71.29
2017-05-07T06:34:01.394Z,71.48
2017-05-07T06:35:02.036Z,72.25
2017-05-07T06:36:02.675Z,71.48
2017-05-07T06:37:03.513Z,71.77
2017-05-07T06:38:04.154Z,71.87
2017-05-07T06:39:04.793Z,71.87
2017-05-07T06:40:05.427Z,72.44
2017-05-07T06:41:06.070Z,72.64
2017-05-07T06:42:06.706Z,72.34
2017-05-07T06:43:07.349Z,72.16
2017-05-07T06:44:07.988Z,71.77
2017-05-07T06:45:08.628Z,71.58
2017-05-07T06:46:09.419Z,71.39
2017-05-07T06:47:10.059Z,71.29
2017-05-07T06:48:10.701Z,71.39
2017-05-07T06:49:11.343Z,71.48
2017-05-07T06:50:11.985Z,71.48
2017-05-07T06:51:12.628Z,71.48
2017-05-07T06:52:13.269Z,71.48
2017-05-07T06:53:13.908Z,71.58
2017-05-07T06:54:14.749Z,71.87
2017-05-07T06:55:15.392Z,71.67
2017-05-07T06:56:16.036Z,71.39
2017-05-07T06:57:16.671Z,72.06
2017-05-07T06:58:17.312Z,71.96
2017-05-07T06:59:17.952Z,72.25
2017-05-07T07:00:18.594Z,72.25
2017-05-07T07:01:19.231Z,72.34
2017-05-07T07:02:20.019Z,72.25
2017-05-07T07:03:20.655Z,72.64
2017-05-07T07:04:21.297Z,71.96
2017-05-07T07:05:21.940Z,72.34
2017-05-07T07:06:22.578Z,71.19
2017-05-07T07:07:23.220Z,71.39
2017-05-07T07:08:23.862Z,71.29
2017-05-07T07:09:24.499Z,71.58
2017-05-07T07:10:25.340Z,71.39
2017-05-07T07:11:25.982Z,71.77
2017-05-07T07:12:26.623Z,71.77
2017-05-07T07:13:27.265Z,71.87
2017-05-07T07:14:27.906Z,71.87
2017-05-07T07:15:28.548Z,71.67
2017-05-07T07:16:29.190Z,71.87
2017-05-07T07:17:29.829Z,72.06
2017-05-07T07:18:30.468Z,72.34
2017-05-07T07:19:31.261Z,71.96
2017-05-07T07:20:31.897Z,71.87
2017-05-07T07:21:32.538Z,71.96
2017-05-07T07:22:33.179Z,72.06
2017-05-07T07:23:33.818Z,72.44
2017-05-07T07:24:34.461Z,71.67
2017-05-07T07:25:35.103Z,71.58
2017-05-07T07:26:35.745Z,72.34
2017-05-07T07:27:36.580Z,71.58
2017-05-07T07:28:37.223Z,71.58
2017-05-07T07:29:37.867Z,71.96
2017-05-07T07:30:38.534Z,72.16
2017-05-07T07:31:39.147Z,71.77
2017-05-07T07:32:39.789Z,71.58
2017-05-07T07:33:40.430Z,71.77
2017-05-07T07:34:41.070Z,71.58
2017-05-07T07:35:41.857Z,72.34
2017-05-07T07:36:42.499Z,71.58
2017-05-07T07:37:43.138Z,71.67
2017-05-07T07:38:43.782Z,71.58
2017-05-07T07:39:44.420Z,71.87
2017-05-07T07:40:45.058Z,71.77
2017-05-07T07:41:45.697Z,71.77
2017-05-07T07:42:46.334Z,71.67
2017-05-07T07:43:47.177Z,71.58
2017-05-07T07:44:47.813Z,71.67
2017-05-07T07:45:48.454Z,71.67
2017-05-07T07:46:49.096Z,71.67
2017-05-07T07:47:49.739Z,72.06
2017-05-07T07:48:50.381Z,71.87
2017-05-07T07:49:51.023Z,72.25
2017-05-07T07:50:51.665Z,72.16
2017-05-07T07:51:52.457Z,71.58
2017-05-07T07:52:53.095Z,72.25
2017-05-07T07:53:53.738Z,71.87
2017-05-07T07:54:54.377Z,71.96
2017-05-07T07:55:55.014Z,72.83
2017-05-07T07:56:55.654Z,72.34
2017-05-07T07:57:56.297Z,72.25
2017-05-07T07:58:56.935Z,71.87
2017-05-07T07:59:57.578Z,72.54
2017-05-07T08:00:58.518Z,72.34
2017-05-07T08:01:59.152Z,71.96
2017-05-07T08:02:59.796Z,72.54
2017-05-07T08:04:00.436Z,72.64
2017-05-07T08:05:01.079Z,72.06
2017-05-07T08:06:01.721Z,72.38
2017-05-07T08:07:02.363Z,71.91
2017-05-07T08:08:03.003Z,72.00
2017-05-07T08:09:03.793Z,72.00
2017-05-07T08:10:04.438Z,72.58
2017-05-07T08:11:05.077Z,72.48
2017-05-07T08:12:05.718Z,72.38
2017-05-07T08:13:06.360Z,72.67
2017-05-07T08:14:07.062Z,71.61
2017-05-07T08:15:07.708Z,70.37
2017-05-07T08:16:08.352Z,69.89
2017-05-07T08:17:09.195Z,69.40
2017-05-07T08:18:09.840Z,69.75
2017-05-07T08:19:10.482Z,70.72
2017-05-07T08:20:11.129Z,71.19
2017-05-07T08:21:11.774Z,71.19
2017-05-07T08:22:12.420Z,72.41
2017-05-07T08:23:13.067Z,71.16
2017-05-07T08:24:13.711Z,71.64
2017-05-07T08:25:14.559Z,71.93
2017-05-07T08:26:15.204Z,71.93
2017-05-07T08:27:15.854Z,73.27
2017-05-07T08:28:16.498Z,72.12
2017-05-07T08:29:17.143Z,72.60
2017-05-07T08:30:17.785Z,72.69
2017-05-07T08:31:18.422Z,71.73
2017-05-07T08:32:19.068Z,70.97
2017-05-07T08:33:19.710Z,72.50
2017-05-07T08:34:20.554Z,73.66
2017-05-07T08:35:21.196Z,72.60
2017-05-07T08:36:21.838Z,72.99
2017-05-07T08:37:22.487Z,72.69
2017-05-07T08:38:23.129Z,72.99
2017-05-07T08:39:23.777Z,72.41
2017-05-07T08:40:24.421Z,71.73
2017-05-07T08:41:25.066Z,71.93
2017-05-07T08:42:25.861Z,72.54
2017-05-07T08:43:26.507Z,72.69
2017-05-07T08:44:27.148Z,72.89
2017-05-07T08:45:27.792Z,71.77
2017-05-07T08:46:28.437Z,70.52
2017-05-07T08:47:29.090Z,70.72
2017-05-07T08:48:29.726Z,69.95
2017-05-07T08:49:30.372Z,71.48
2017-05-07T08:50:31.214Z,71.00
2017-05-07T08:51:31.859Z,70.23
2017-05-07T08:52:32.504Z,70.81
2017-05-07T08:53:33.149Z,71.48
2017-05-07T08:54:33.794Z,70.23
2017-05-07T08:55:34.440Z,69.95
2017-05-07T08:56:35.089Z,71.00
2017-05-07T08:57:35.735Z,70.52
2017-05-07T08:58:36.579Z,71.19
2017-05-07T08:59:37.224Z,70.52
2017-05-07T09:00:37.863Z,70.81
2017-05-07T09:01:38.508Z,71.04
2017-05-07T09:02:39.154Z,69.79
2017-05-07T09:03:39.798Z,69.12
2017-05-07T09:04:40.440Z,68.92
2017-05-07T09:05:41.084Z,68.92
2017-05-07T09:06:42.031Z,67.58
2017-05-07T09:07:42.676Z,67.19
2017-05-07T09:08:43.322Z,68.15
2017-05-07T09:09:43.966Z,68.92
2017-05-07T09:10:44.609Z,69.98
2017-05-07T09:11:45.252Z,69.02
2017-05-07T09:12:45.898Z,68.83
2017-05-07T09:13:46.540Z,69.02
2017-05-07T09:14:47.186Z,69.12
2017-05-07T09:15:48.038Z,69.50
2017-05-07T09:16:48.679Z,67.48
2017-05-07T09:17:49.323Z,68.19
2017-05-07T09:18:49.967Z,69.82
2017-05-07T09:19:50.611Z,69.06
2017-05-07T09:20:51.255Z,68.86
2017-05-07T09:21:51.896Z,68.38
2017-05-07T09:22:52.547Z,67.99
2017-05-07T09:23:53.338Z,68.67
2017-05-07T09:24:53.984Z,68.09
2017-05-07T09:25:54.634Z,68.76
2017-05-07T09:26:55.278Z,67.93
2017-05-07T09:27:55.920Z,67.80
2017-05-07T09:28:56.560Z,67.65
2017-05-07T09:29:57.205Z,67.26
2017-05-07T09:30:57.850Z,66.97
2017-05-07T09:31:58.695Z,66.30
2017-05-07T09:32:59.341Z,66.68
2017-05-07T09:33:59.989Z,66.68
2017-05-07T09:35:00.633Z,66.68
2017-05-07T09:36:01.276Z,66.20
2017-05-07T09:37:01.926Z,65.81
2017-05-07T09:38:02.572Z,66.01
2017-05-07T09:39:03.218Z,65.62
2017-05-07T09:40:04.068Z,65.91
2017-05-07T09:41:04.710Z,64.86
2017-05-07T09:42:05.353Z,64.02
2017-05-07T09:43:05.997Z,64.12
2017-05-07T09:44:06.643Z,63.64
2017-05-07T09:45:07.288Z,64.21
2017-05-07T09:46:07.936Z,65.08
2017-05-07T09:47:08.577Z,64.12
2017-05-07T09:48:09.220Z,64.40
2017-05-07T09:49:10.064Z,65.17
2017-05-07T09:50:10.712Z,65.94
2017-05-07T09:51:11.358Z,64.31
2017-05-07T09:52:12.006Z,64.21
2017-05-07T09:53:12.652Z,64.31
2017-05-07T09:54:13.299Z,63.82
2017-05-07T09:55:13.950Z,63.76
2017-05-07T09:56:14.598Z,62.80
2017-05-07T09:57:15.445Z,63.85
2017-05-07T09:58:16.091Z,63.76
2017-05-07T09:59:16.736Z,63.76
2017-05-07T10:00:17.381Z,63.76
2017-05-07T10:01:18.023Z,63.76
2017-05-07T10:02:18.669Z,64.15
2017-05-07T10:03:19.316Z,63.57
2017-05-07T10:04:19.961Z,63.38
2017-05-07T10:05:20.758Z,63.38
2017-05-07T10:06:21.401Z,63.18
2017-05-07T10:07:22.103Z,62.80
2017-05-07T10:08:22.752Z,63.09
2017-05-07T10:09:23.400Z,63.47
2017-05-07T10:10:24.045Z,63.09
2017-05-07T10:11:24.690Z,62.03
2017-05-07T10:12:25.338Z,63.18
2017-05-07T10:13:26.179Z,62.32
2017-05-07T10:14:26.823Z,62.22
2017-05-07T10:15:27.470Z,63.09
2017-05-07T10:16:28.116Z,63.09
2017-05-07T10:17:28.762Z,63.28
2017-05-07T10:18:29.410Z,62.41
2017-05-07T10:19:30.054Z,62.51
2017-05-07T10:20:30.705Z,62.63
2017-05-07T10:21:31.497Z,62.25
2017-05-07T10:22:32.140Z,61.96
2017-05-07T10:23:32.785Z,60.52
2017-05-07T10:24:33.431Z,61.22
2017-05-07T10:25:34.074Z,61.22
2017-05-07T10:26:34.718Z,61.03
2017-05-07T10:27:35.369Z,62.09
2017-05-07T10:28:36.020Z,61.03
2017-05-07T10:29:36.672Z,61.22
2017-05-07T10:30:37.526Z,61.03
2017-05-07T10:31:38.176Z,60.93
2017-05-07T10:32:38.832Z,60.26
2017-05-07T10:33:39.484Z,60.83
2017-05-07T10:34:40.135Z,59.78
2017-05-07T10:35:40.788Z,61.13
2017-05-07T10:36:41.446Z,60.55
2017-05-07T10:37:42.101Z,61.06
2017-05-07T10:38:42.906Z,60.86
2017-05-07T10:39:43.566Z,59.32
2017-05-07T10:40:44.221Z,59.13
2017-05-07T10:41:44.878Z,58.94
2017-05-07T10:42:45.535Z,58.29
2017-05-07T10:43:46.198Z,56.65
2017-05-07T10:44:46.857Z,55.33
2017-05-07T10:45:47.511Z,55.62
2017-05-07T10:46:48.374Z,55.26
2017-05-07T10:47:49.031Z,55.16
2017-05-07T10:48:49.693Z,54.97
2017-05-07T10:49:50.356Z,54.99
2017-05-07T10:50:51.019Z,54.90
2017-05-07T10:51:51.680Z,54.73
2017-05-07T10:52:52.340Z,52.61
2017-05-07T10:53:52.947Z,52.53
2017-05-07T10:54:53.814Z,52.08
2017-05-07T10:55:54.480Z,51.10
2017-05-07T10:56:55.142Z,49.87
2017-05-07T10:57:55.807Z,49.49
2017-05-07T10:58:56.472Z,48.64
2017-05-07T10:59:57.137Z,47.19
2017-05-07T11:00:57.805Z,47.40
2017-05-07T11:01:58.472Z,46.45
2017-05-07T11:02:59.140Z,45.99
2017-05-07T11:03:59.951Z,45.61
2017-05-07T11:05:00.618Z,44.65
2017-05-07T11:06:01.283Z,44.17
2017-05-07T11:07:01.953Z,42.61
2017-05-07T11:08:02.615Z,42.05
2017-05-07T11:09:03.280Z,42.08
2017-05-07T11:10:03.947Z,41.39
2017-05-07T11:11:04.612Z,40.91
2017-05-07T11:12:05.479Z,39.76
2017-05-07T11:13:06.150Z,40.34
2017-05-07T11:14:06.815Z,41.51
2017-05-07T11:15:07.483Z,41.61
2017-05-07T11:16:08.155Z,41.42
2017-05-07T11:17:08.820Z,40.17
2017-05-07T11:18:09.491Z,40.37
2017-05-07T11:19:10.157Z,40.37
2017-05-07T11:20:10.976Z,40.08
2017-05-07T11:21:11.639Z,39.29
2017-05-07T11:22:12.309Z,39.78
2017-05-07T11:23:12.976Z,40.25
2017-05-07T11:24:13.646Z,41.42
2017-05-07T11:25:14.317Z,41.32
2017-05-07T11:26:14.989Z,41.05
2017-05-07T11:27:15.659Z,40.58
2017-05-07T11:28:16.530Z,39.31
2017-05-07T11:29:17.199Z,38.36
2017-05-07T11:30:17.869Z,38.75
2017-05-07T11:31:18.539Z,39.14
2017-05-07T11:32:19.205Z,39.14
2017-05-07T11:33:19.875Z,38.95
2017-05-07T11:34:20.545Z,38.95
2017-05-07T11:35:21.209Z,38.56
2017-05-07T11:36:22.131Z,38.85
2017-05-07T11:37:22.799Z,38.46
2017-05-07T11:38:23.470Z,38.36
2017-05-07T11:39:24.137Z,39.43
2017-05-07T11:40:24.806Z,39.04
2017-05-07T11:41:25.474Z,38.95
2017-05-07T11:42:26.144Z,39.14
2017-05-07T11:43:26.813Z,39.06
2017-05-07T11:44:27.480Z,38.18
2017-05-07T11:45:28.400Z,37.70
2017-05-07T11:46:29.068Z,37.70
2017-05-07T11:47:29.738Z,37.71
2017-05-07T11:48:30.406Z,36.74
2017-05-07T11:49:31.075Z,37.50
2017-05-07T11:50:31.743Z,37.13
2017-05-07T11:51:32.411Z,36.35
2017-05-07T11:52:33.033Z,35.51
2017-05-07T11:53:33.901Z,37.48
2017-05-07T11:54:34.564Z,39.69
2017-05-07T11:55:35.231Z,41.49
2017-05-07T11:56:35.896Z,42.05
2017-05-07T11:57:36.562Z,43.30
2017-05-07T11:58:37.227Z,44.34
2017-05-07T11:59:37.892Z,45.00
2017-05-07T12:00:38.557Z,45.48
2017-05-07T12:01:39.672Z,46.16
2017-05-07T12:02:40.337Z,46.16
2017-05-07T12:03:40.997Z,46.26
2017-05-07T12:04:41.660Z,46.36
2017-05-07T12:05:42.321Z,46.26
2017-05-07T12:06:42.983Z,46.36
2017-05-07T12:07:43.644Z,46.26
2017-05-07T12:08:44.306Z,46.36
2017-05-07T12:09:45.268Z,46.16
2017-05-07T12:10:45.928Z,46.07
2017-05-07T12:11:46.589Z,45.97
2017-05-07T12:12:47.255Z,45.87
2017-05-07T12:13:47.911Z,46.07
2017-05-07T12:14:48.567Z,45.78
2017-05-07T12:15:49.227Z,45.39
2017-05-07T12:16:49.889Z,45.58
2017-05-07T12:17:50.547Z,45.41
2017-05-07T12:18:51.406Z,45.12
2017-05-07T12:19:52.067Z,44.73
2017-05-07T12:20:52.726Z,45.02
2017-05-07T12:21:53.385Z,44.83
2017-05-07T12:22:54.045Z,44.64
2017-05-07T12:23:54.705Z,44.46
2017-05-07T12:24:55.366Z,44.46
2017-05-07T12:25:56.024Z,44.37
2017-05-07T12:26:56.883Z,44.34
2017-05-07T12:27:57.544Z,44.46
2017-05-07T12:28:58.205Z,44.44
2017-05-07T12:29:58.865Z,44.17
2017-05-07T12:30:59.525Z,44.27
2017-05-07T12:32:00.186Z,44.07
2017-05-07T12:33:00.847Z,43.98
2017-05-07T12:34:01.507Z,44.27
2017-05-07T12:35:02.367Z,43.78
2017-05-07T12:36:03.025Z,43.49
2017-05-07T12:37:03.678Z,43.40
2017-05-07T12:38:04.337Z,43.20
2017-05-07T12:39:04.994Z,43.32
2017-05-07T12:40:05.656Z,43.41
2017-05-07T12:41:06.309Z,43.32
2017-05-07T12:42:06.963Z,42.93
2017-05-07T12:43:07.771Z,43.02
2017-05-07T12:44:08.432Z,43.22
2017-05-07T12:45:09.094Z,42.64
2017-05-07T12:46:09.750Z,43.32
2017-05-07T12:47:10.408Z,42.54
2017-05-07T12:48:11.066Z,42.83
2017-05-07T12:49:11.725Z,42.25
2017-05-07T12:50:12.382Z,42.35
2017-05-07T12:51:13.243Z,42.27
2017-05-07T12:52:13.902Z,42.27
2017-05-07T12:53:14.556Z,42.27
2017-05-07T12:54:15.213Z,42.08
2017-05-07T12:55:15.870Z,42.36
2017-05-07T12:56:16.524Z,42.18
2017-05-07T12:57:17.180Z,41.98
2017-05-07T12:58:17.847Z,41.59
2017-05-07T12:59:18.504Z,41.88
2017-05-07T13:00:19.462Z,41.78
2017-05-07T13:01:20.118Z,41.88